createdAt,value
2023-04-03T00:03:35.870Z,47.65
2023-04-03T00:06:06.746Z,47.83
2023-04-03T00:08:37.224Z,47.84
2023-04-03T00:11:07.438Z,47.46
2023-04-03T00:13:35.719Z,46.90
2023-04-03T00:16:05.426Z,47.00
2023-04-03T00:18:33.557Z,46.55
2023-04-03T00:21:02.273Z,46.72
2023-04-03T00:23:30.773Z,46.79
2023-04-03T00:25:58.979Z,46.53
2023-04-03T00:28:28.401Z,46.57
2023-04-03T00:30:57.370Z,46.62
2023-04-03T00:33:26.584Z,46.63
2023-04-03T00:35:55.742Z,46.27
2023-04-03T00:38:24.430Z,46.07
2023-04-03T00:40:52.838Z,45.89
2023-04-03T00:43:25.664Z,45.30
2023-04-03T00:45:57.080Z,44.54
2023-04-03T00:48:37.454Z,44.68
2023-04-03T00:51:09.183Z,44.66
2023-04-03T00:53:58.166Z,45.02
2023-04-03T00:56:29.861Z,45.01
2023-04-03T00:59:06.223Z,44.88
2023-04-03T01:01:36.527Z,44.87
2023-04-03T01:04:06.189Z,44.96
2023-04-03T01:06:37.780Z,44.55
2023-04-03T01:09:07.332Z,44.49
2023-04-03T01:11:35.773Z,44.60
2023-04-03T01:14:04.083Z,44.60
2023-04-03T01:16:33.524Z,44.41
2023-04-03T01:19:03.048Z,44.22
2023-04-03T01:22:04.526Z,44.00
2023-04-03T01:24:34.347Z,43.90
2023-04-03T01:27:05.898Z,43.94
2023-04-03T01:29:34.951Z,43.90
2023-04-03T01:32:04.813Z,43.88
2023-04-03T01:34:33.337Z,44.19
2023-04-03T01:37:01.979Z,43.96
2023-04-03T01:39:30.615Z,43.40
2023-04-03T01:41:59.299Z,43.81
2023-04-03T01:44:28.424Z,43.32
2023-04-03T01:46:57.062Z,43.76
2023-04-03T01:49:25.452Z,43.86
2023-04-03T01:51:54.245Z,43.71
2023-04-03T01:54:22.341Z,43.62
2023-04-03T01:56:51.108Z,43.38
2023-04-03T01:59:19.952Z,43.49
2023-04-03T02:01:49.446Z,43.72
2023-04-03T02:04:18.000Z,43.73
2023-04-03T02:06:47.216Z,43.39
2023-04-03T02:09:16.132Z,43.49
2023-04-03T02:11:44.594Z,43.41
2023-04-03T02:14:13.249Z,43.24
2023-04-03T02:16:41.479Z,43.13
2023-04-03T02:19:10.036Z,42.73
2023-04-03T02:21:39.167Z,42.92
2023-04-03T02:24:08.009Z,42.59
2023-04-03T02:26:36.242Z,42.65
2023-04-03T02:29:04.512Z,42.51
2023-04-03T02:31:32.964Z,42.69
2023-04-03T02:34:02.965Z,42.33
2023-04-03T02:36:32.979Z,42.37
2023-04-03T02:39:01.284Z,42.51
2023-04-03T02:41:29.383Z,42.18
2023-04-03T02:43:57.728Z,42.26
2023-04-03T02:46:26.652Z,42.37
2023-04-03T02:48:55.644Z,41.89
2023-04-03T02:51:24.687Z,41.31
2023-04-03T02:53:53.349Z,41.40
2023-04-03T02:56:21.942Z,41.69
2023-04-03T02:58:51.372Z,41.87
2023-04-03T03:01:20.471Z,41.92
2023-04-03T03:03:48.834Z,41.95
2023-04-03T03:06:18.215Z,41.98
2023-04-03T03:08:47.020Z,42.04
2023-04-03T03:11:16.401Z,41.74
2023-04-03T03:13:45.832Z,41.77
2023-04-03T03:16:14.890Z,41.23
2023-04-03T03:18:43.613Z,41.69
2023-04-03T03:21:12.457Z,41.48
2023-04-03T03:23:40.927Z,41.24
2023-04-03T03:26:11.992Z,40.80
2023-04-03T03:28:40.919Z,40.53
2023-04-03T03:31:10.666Z,40.28
2023-04-03T03:33:39.701Z,40.92
2023-04-03T03:36:08.770Z,40.66
2023-04-03T03:38:38.933Z,40.41
2023-04-03T03:41:07.663Z,40.18
2023-04-03T03:43:36.545Z,40.50
2023-04-03T03:46:05.791Z,40.51
2023-04-03T03:48:34.147Z,39.97
2023-04-03T03:51:02.439Z,39.68
2023-04-03T03:53:32.324Z,40.35
2023-04-03T03:56:00.951Z,40.66
2023-04-03T03:58:29.101Z,40.68
2023-04-03T04:00:57.813Z,40.70
2023-04-03T04:03:27.440Z,40.87
2023-04-03T04:05:57.048Z,40.96
2023-04-03T04:08:25.963Z,41.02
2023-04-03T04:10:54.820Z,41.10
2023-04-03T04:13:23.921Z,41.17
2023-04-03T04:15:52.075Z,40.95
2023-04-03T04:18:20.169Z,41.26
2023-04-03T04:20:48.543Z,41.39
2023-04-03T04:23:18.851Z,41.46
2023-04-03T04:25:49.202Z,41.47
2023-04-03T04:28:17.781Z,41.63
2023-04-03T04:30:46.425Z,41.62
2023-04-03T04:33:14.684Z,41.51
2023-04-03T04:35:44.214Z,41.45
2023-04-03T04:38:14.806Z,41.43
2023-04-03T04:40:43.124Z,41.06
2023-04-03T04:43:11.823Z,41.30
2023-04-03T04:45:40.142Z,41.30
2023-04-03T04:48:09.534Z,41.33
2023-04-03T04:50:37.910Z,41.15
2023-04-03T04:53:06.073Z,41.23
2023-04-03T04:55:35.098Z,40.68
2023-04-03T04:58:03.434Z,40.72
2023-04-03T05:00:32.040Z,40.76
2023-04-03T05:03:00.540Z,40.95
2023-04-03T05:05:29.619Z,41.03
2023-04-03T05:07:57.830Z,41.09
2023-04-03T05:10:26.401Z,41.17
2023-04-03T05:12:54.703Z,40.98
2023-04-03T05:15:22.858Z,40.88
2023-04-03T05:17:51.209Z,41.10
2023-04-03T05:20:19.387Z,41.26
2023-04-03T05:22:47.676Z,41.23
2023-04-03T05:25:16.516Z,41.17
2023-04-03T05:27:45.313Z,41.27
2023-04-03T05:30:14.635Z,41.09
2023-04-03T05:32:43.389Z,40.64
2023-04-03T05:35:12.579Z,40.86
2023-04-03T05:37:41.464Z,40.36
2023-04-03T05:40:11.245Z,40.51
2023-04-03T05:42:39.754Z,40.44
2023-04-03T05:45:08.708Z,40.38
2023-04-03T05:47:37.200Z,40.36
2023-04-03T05:50:06.216Z,40.30
2023-04-03T05:52:41.406Z,40.27
2023-04-03T05:55:09.922Z,40.43
2023-04-03T05:57:38.277Z,40.42
2023-04-03T06:00:09.080Z,40.36
2023-04-03T06:02:37.674Z,40.24
2023-04-03T06:05:07.178Z,40.22
2023-04-03T06:07:35.951Z,39.93
2023-04-03T06:10:04.629Z,39.75
2023-04-03T06:12:35.360Z,39.21
2023-04-03T06:15:04.436Z,38.33
2023-04-03T06:17:32.650Z,37.71
2023-04-03T06:20:02.058Z,37.38
2023-04-03T06:22:30.632Z,37.44
2023-04-03T06:24:59.428Z,37.48
2023-04-03T06:27:27.642Z,37.23
2023-04-03T06:29:56.331Z,36.56
2023-04-03T06:32:24.786Z,35.73
2023-04-03T06:34:53.086Z,34.09
2023-04-03T06:37:24.385Z,32.26
2023-04-03T06:39:53.169Z,29.66
2023-04-03T06:42:21.458Z,27.84
2023-04-03T06:44:51.429Z,26.80
2023-04-03T06:47:20.264Z,25.70
2023-04-03T06:49:48.738Z,24.51
2023-04-03T06:52:16.999Z,23.13
2023-04-03T06:54:45.151Z,21.87
2023-04-03T06:57:13.305Z,20.34
2023-04-03T06:59:41.895Z,19.19
2023-04-03T07:02:12.829Z,18.12
2023-04-03T07:04:41.259Z,17.20
2023-04-03T07:07:09.583Z,16.24
2023-04-03T07:09:37.831Z,15.70
2023-04-03T07:12:07.101Z,15.07
2023-04-03T07:14:35.514Z,14.85
2023-04-03T07:17:03.711Z,14.74
2023-04-03T07:19:31.993Z,14.76
2023-04-03T07:22:00.377Z,14.80
2023-04-03T07:24:28.596Z,14.65
2023-04-03T07:26:56.937Z,14.29
2023-04-03T07:29:25.416Z,13.71
2023-04-03T07:31:54.154Z,13.21
2023-04-03T07:34:22.764Z,12.76
2023-04-03T07:36:51.253Z,12.34
2023-04-03T07:39:19.414Z,11.80
2023-04-03T07:41:48.525Z,11.28
2023-04-03T07:44:16.768Z,10.75
2023-04-03T07:46:45.258Z,10.64
2023-04-03T07:49:13.814Z,10.54
2023-04-03T07:51:42.163Z,10.55
2023-04-03T07:54:10.273Z,10.44
2023-04-03T07:56:38.371Z,10.20
2023-04-03T07:59:06.755Z,10.00
2023-04-03T08:01:34.962Z,9.88
2023-04-03T08:04:03.255Z,9.97
2023-04-03T08:06:44.803Z,9.92
2023-04-03T08:09:16.741Z,9.82
2023-04-03T08:11:45.216Z,9.62
2023-04-03T08:14:14.405Z,9.45
2023-04-03T08:16:44.293Z,9.45
2023-04-03T08:19:22.416Z,9.26
2023-04-03T08:21:55.535Z,9.46
2023-04-03T08:24:24.456Z,9.54
2023-04-03T08:26:52.669Z,9.68
2023-04-03T08:29:20.928Z,9.75
2023-04-03T08:31:50.970Z,9.84
2023-04-03T08:34:21.225Z,10.01
2023-04-03T08:36:49.437Z,10.17
2023-04-03T08:39:18.088Z,10.36
2023-04-03T08:41:47.620Z,10.50
2023-04-03T08:44:48.334Z,10.75
2023-04-03T08:47:29.812Z,10.99
2023-04-03T08:50:05.441Z,11.28
2023-04-03T08:52:50.141Z,11.45
2023-04-03T08:55:33.106Z,11.79
2023-04-03T08:58:04.126Z,12.31
2023-04-03T09:01:00.418Z,12.81
2023-04-03T09:03:32.554Z,13.55
2023-04-03T09:06:31.722Z,13.94
2023-04-03T09:09:17.865Z,14.36
2023-04-03T09:12:11.108Z,15.03
2023-04-03T09:15:10.711Z,16.02
2023-04-03T09:18:00.298Z,16.94
2023-04-03T09:20:32.036Z,17.56
2023-04-03T09:23:00.264Z,18.00
2023-04-03T09:25:32.940Z,18.28
2023-04-03T09:28:02.349Z,18.02
2023-04-03T09:30:31.179Z,17.90
2023-04-03T09:32:59.592Z,18.29
2023-04-03T09:35:44.931Z,18.08
2023-04-03T09:38:23.529Z,18.13
2023-04-03T09:41:07.639Z,17.44
2023-04-03T09:43:38.860Z,17.88
2023-04-03T09:46:33.113Z,17.83
2023-04-03T09:49:12.079Z,18.22
2023-04-03T09:51:41.814Z,19.21
2023-04-03T09:54:35.179Z,19.81
2023-04-03T09:57:09.432Z,19.85
2023-04-03T09:59:44.776Z,19.83
2023-04-03T10:02:13.372Z,19.66
2023-04-03T10:04:43.056Z,19.47
2023-04-03T10:07:31.692Z,19.46
2023-04-03T10:10:03.779Z,19.44
2023-04-03T10:12:32.237Z,19.59
2023-04-03T10:15:02.106Z,19.77
2023-04-03T10:17:52.619Z,20.19
2023-04-03T10:20:40.961Z,20.32
2023-04-03T10:23:24.794Z,20.07
2023-04-03T10:26:25.084Z,20.24
2023-04-03T10:29:15.463Z,20.44
2023-04-03T10:31:55.284Z,20.76
2023-04-03T10:34:33.386Z,20.38
2023-04-03T10:37:19.528Z,20.43
2023-04-03T10:40:23.104Z,20.87
2023-04-03T10:43:05.909Z,21.24
2023-04-03T10:46:06.265Z,20.71
2023-04-03T10:48:50.268Z,21.31
2023-04-03T10:51:41.033Z,21.26
2023-04-03T10:54:20.165Z,21.21
2023-04-03T10:57:12.565Z,21.73
2023-04-03T11:00:04.860Z,22.14
2023-04-03T11:02:39.589Z,22.35
2023-04-03T11:05:32.820Z,22.39
2023-04-03T11:08:09.684Z,22.29
2023-04-03T11:10:45.782Z,22.55
2023-04-03T11:13:52.375Z,22.73
2023-04-03T11:16:26.314Z,22.91
2023-04-03T11:19:05.093Z,22.53
2023-04-03T11:21:40.706Z,22.21
2023-04-03T11:24:23.704Z,22.10
2023-04-03T11:26:54.923Z,22.05
2023-04-03T11:29:35.475Z,22.28
2023-04-03T11:32:39.650Z,21.88
2023-04-03T11:35:10.182Z,21.80
2023-04-03T11:37:47.110Z,22.22
2023-04-03T11:40:26.369Z,23.33
2023-04-03T11:43:05.549Z,24.31
2023-04-03T11:45:51.579Z,24.80
2023-04-03T11:48:24.773Z,25.92
2023-04-03T11:50:54.428Z,27.28
2023-04-03T11:53:33.271Z,30.18
2023-04-03T11:56:25.855Z,31.21
2023-04-03T11:59:23.268Z,32.28
2023-04-03T12:01:59.424Z,33.05
2023-04-03T12:04:29.041Z,33.80
2023-04-03T12:07:19.600Z,34.31
2023-04-03T12:09:47.769Z,34.21
2023-04-03T12:12:37.047Z,34.96
2023-04-03T12:15:22.728Z,34.59
2023-04-03T12:17:52.169Z,34.73
2023-04-03T12:20:59.397Z,34.56
2023-04-03T12:23:36.407Z,34.08
2023-04-03T12:26:32.387Z,33.98
2023-04-03T12:29:25.351Z,34.34
2023-04-03T12:32:25.726Z,34.72
2023-04-03T12:35:03.505Z,35.68
2023-04-03T12:37:32.152Z,36.10
2023-04-03T12:40:26.395Z,35.95
2023-04-03T12:43:49.490Z,35.78
2023-04-03T12:46:22.198Z,36.43
2023-04-03T12:48:59.375Z,37.34
2023-04-03T12:51:48.012Z,38.59
2023-04-03T12:54:24.600Z,39.33
2023-04-03T12:56:53.413Z,40.28
2023-04-03T12:59:24.951Z,41.07
2023-04-03T13:01:59.522Z,41.51
2023-04-03T13:04:29.668Z,41.92
2023-04-03T13:06:59.585Z,42.44
2023-04-03T13:09:32.781Z,42.48
2023-04-03T13:12:10.504Z,43.29
2023-04-03T13:14:38.989Z,43.66
2023-04-03T13:17:18.370Z,43.15
2023-04-03T13:19:47.135Z,43.13
2023-04-03T13:22:18.518Z,43.64
2023-04-03T13:24:50.691Z,44.17
2023-04-03T13:27:19.900Z,43.83
2023-04-03T13:29:54.996Z,44.30
2023-04-03T13:32:27.954Z,44.96
2023-04-03T13:35:08.098Z,45.53
2023-04-03T13:37:40.744Z,45.39
2023-04-03T13:40:13.495Z,46.31
2023-04-03T13:42:43.184Z,46.67
2023-04-03T13:45:14.279Z,46.86
2023-04-03T13:47:46.482Z,47.36
2023-04-03T13:50:24.966Z,47.20
2023-04-03T13:53:03.264Z,48.00
2023-04-03T13:55:38.562Z,47.41
2023-04-03T13:58:13.201Z,47.43
2023-04-03T14:00:57.861Z,47.85
2023-04-03T14:03:46.973Z,48.05
2023-04-03T14:06:17.810Z,48.11
2023-04-03T14:08:47.429Z,47.79
2023-04-03T14:11:30.916Z,48.81
2023-04-03T14:14:03.824Z,49.91
2023-04-03T14:16:38.584Z,50.65
2023-04-03T14:19:07.055Z,50.76
2023-04-03T14:21:35.546Z,50.01
2023-04-03T14:24:03.932Z,49.93
2023-04-03T14:26:32.596Z,50.16
2023-04-03T14:29:01.077Z,50.18
2023-04-03T14:31:30.484Z,49.72
2023-04-03T14:33:59.192Z,50.05
2023-04-03T14:36:29.669Z,49.82
2023-04-03T14:38:59.081Z,49.45
2023-04-03T14:41:28.407Z,48.97
2023-04-03T14:43:56.903Z,48.86
2023-04-03T14:46:45.533Z,48.46
2023-04-03T14:49:26.282Z,48.42
2023-04-03T14:51:55.308Z,48.67
2023-04-03T14:54:24.457Z,48.49
2023-04-03T14:56:54.040Z,48.62
2023-04-03T14:59:23.231Z,49.01
2023-04-03T15:01:51.538Z,48.87
2023-04-03T15:04:22.159Z,49.23
2023-04-03T15:06:53.009Z,49.20
2023-04-03T15:09:24.529Z,49.18
2023-04-03T15:11:55.738Z,49.31
2023-04-03T15:14:36.396Z,49.54
2023-04-03T15:17:08.147Z,49.46
2023-04-03T15:19:40.744Z,49.59
2023-04-03T15:22:15.531Z,49.94
2023-04-03T15:24:44.946Z,49.58
2023-04-03T15:27:15.226Z,49.28
2023-04-03T15:29:45.273Z,49.26
2023-04-03T15:32:14.404Z,49.39
2023-04-03T15:34:42.672Z,49.30
2023-04-03T15:37:10.896Z,49.56
2023-04-03T15:39:39.330Z,49.65
2023-04-03T15:42:07.573Z,49.85
2023-04-03T15:44:36.509Z,50.03
2023-04-03T15:47:05.705Z,50.51
2023-04-03T15:49:34.904Z,51.19
2023-04-03T15:52:03.892Z,51.84
2023-04-03T15:54:33.805Z,52.79
2023-04-03T15:57:02.272Z,52.60
2023-04-03T15:59:30.935Z,52.38
2023-04-03T16:02:01.799Z,52.48
2023-04-03T16:04:33.563Z,51.79
2023-04-03T16:07:03.685Z,51.66
2023-04-03T16:09:34.203Z,50.93
2023-04-03T16:12:02.869Z,50.78
2023-04-03T16:14:31.169Z,50.50
2023-04-03T16:17:01.423Z,49.94
2023-04-03T16:19:30.768Z,49.61
2023-04-03T16:21:59.027Z,49.72
2023-04-03T16:24:27.350Z,49.53
2023-04-03T16:26:55.482Z,49.32
2023-04-03T16:29:23.600Z,49.34
2023-04-03T16:31:52.482Z,49.22
2023-04-03T16:34:20.729Z,49.00
2023-04-03T16:36:49.895Z,48.69
2023-04-03T16:39:18.472Z,48.03
2023-04-03T16:41:47.003Z,48.30
2023-04-03T16:44:15.207Z,48.16
2023-04-03T16:46:44.467Z,48.17
2023-04-03T16:49:13.681Z,48.13
2023-04-03T16:51:41.805Z,48.06
2023-04-03T16:54:10.543Z,48.13
2023-04-03T16:56:38.645Z,48.24
2023-04-03T16:59:07.204Z,48.06
2023-04-03T17:01:35.550Z,47.99
2023-04-03T17:04:07.047Z,47.72
2023-04-03T17:06:35.674Z,47.88
2023-04-03T17:09:04.004Z,49.25
2023-04-03T17:11:32.844Z,50.19
2023-04-03T17:14:01.009Z,50.49
2023-04-03T17:16:30.890Z,50.76
2023-04-03T17:18:59.490Z,51.62
2023-04-03T17:21:27.957Z,52.23
2023-04-03T17:23:59.946Z,52.28
2023-04-03T17:26:28.747Z,52.63
2023-04-03T17:28:56.909Z,52.18
2023-04-03T17:31:25.111Z,52.80
2023-04-03T17:33:53.573Z,53.76
2023-04-03T17:36:21.973Z,54.05
2023-04-03T17:38:53.379Z,54.06
2023-04-03T17:41:22.278Z,54.03
2023-04-03T17:43:50.885Z,53.92
2023-04-03T17:46:19.310Z,53.79
2023-04-03T17:48:47.534Z,53.32
2023-04-03T17:51:20.099Z,53.09
2023-04-03T17:53:49.411Z,53.31
2023-04-03T17:56:20.245Z,53.32
2023-04-03T17:58:49.031Z,53.48
2023-04-03T18:01:23.755Z,53.56
2023-04-03T18:03:54.703Z,53.91
2023-04-03T18:06:28.102Z,53.73
2023-04-03T18:09:03.705Z,53.21
2023-04-03T18:11:33.152Z,53.21
2023-04-03T18:14:04.078Z,53.17
2023-04-03T18:16:32.413Z,53.21
2023-04-03T18:19:12.016Z,53.13
2023-04-03T18:21:49.887Z,53.12
2023-04-03T18:24:20.997Z,52.99
2023-04-03T18:26:55.910Z,54.37
2023-04-03T18:29:24.638Z,54.80
2023-04-03T18:31:57.153Z,54.89
2023-04-03T18:34:25.597Z,55.45
2023-04-03T18:36:53.778Z,55.44
2023-04-03T18:39:23.992Z,55.06
2023-04-03T18:41:53.760Z,54.97
2023-04-03T18:44:25.105Z,54.50
2023-04-03T18:46:53.943Z,54.72
2023-04-03T18:49:22.197Z,54.51
2023-04-03T18:51:50.492Z,54.31
2023-04-03T18:54:18.919Z,54.40
2023-04-03T18:56:47.658Z,55.03
2023-04-03T18:59:15.824Z,54.88
2023-04-03T19:01:44.320Z,54.96
2023-04-03T19:04:14.734Z,54.86
2023-04-03T19:06:43.032Z,54.78
2023-04-03T19:09:11.431Z,54.82
2023-04-03T19:11:39.577Z,54.66
2023-04-03T19:14:15.846Z,54.80
2023-04-03T19:16:45.370Z,54.68
2023-04-03T19:19:13.895Z,54.53
2023-04-03T19:21:42.216Z,54.51
2023-04-03T19:24:13.090Z,54.64
2023-04-03T19:26:42.715Z,54.93
2023-04-03T19:29:11.801Z,54.88
2023-04-03T19:31:41.046Z,54.88
2023-04-03T19:34:09.145Z,55.23
2023-04-03T19:36:37.531Z,55.19
2023-04-03T19:39:06.387Z,54.96
2023-04-03T19:41:36.389Z,54.90
2023-04-03T19:44:06.529Z,54.70
2023-04-03T19:46:36.540Z,54.56
2023-04-03T19:49:05.213Z,54.50
2023-04-03T19:51:33.778Z,54.57
2023-04-03T19:54:02.234Z,54.51
2023-04-03T19:56:30.378Z,54.57
2023-04-03T19:58:58.742Z,54.86
2023-04-03T20:01:27.077Z,54.85
2023-04-03T20:03:55.562Z,55.04
2023-04-03T20:06:24.173Z,55.00
2023-04-03T20:08:52.795Z,55.19
2023-04-03T20:11:21.091Z,55.40
2023-04-03T20:13:51.030Z,55.43
2023-04-03T20:16:23.062Z,55.30
2023-04-03T20:18:56.467Z,55.33
2023-04-03T20:21:32.513Z,55.54
2023-04-03T20:24:03.867Z,55.60
2023-04-03T20:26:34.063Z,55.57
2023-04-03T20:29:02.560Z,55.75
2023-04-03T20:31:33.031Z,55.67
2023-04-03T20:34:01.564Z,55.71
2023-04-03T20:36:29.807Z,55.88
2023-04-03T20:38:58.279Z,55.86
2023-04-03T20:41:26.762Z,55.74
2023-04-03T20:43:55.077Z,55.76
2023-04-03T20:46:23.457Z,55.83
2023-04-03T20:48:51.545Z,55.74
2023-04-03T20:51:20.587Z,55.70
2023-04-03T20:53:49.523Z,55.74
2023-04-03T20:56:18.345Z,55.79
2023-04-03T20:58:46.596Z,55.81
2023-04-03T21:01:23.595Z,55.65
2023-04-03T21:03:56.741Z,55.58
2023-04-03T21:07:02.810Z,55.48
2023-04-03T21:10:08.899Z,55.38
2023-04-03T21:13:15.570Z,55.34
2023-04-03T21:15:46.666Z,55.32
2023-04-03T21:18:48.404Z,55.28
2023-04-03T21:21:24.734Z,55.25
2023-04-03T21:23:54.731Z,55.29
2023-04-03T21:26:27.010Z,55.29
2023-04-03T21:28:55.411Z,55.27
2023-04-03T21:31:24.453Z,55.24
2023-04-03T21:33:52.702Z,55.21
2023-04-03T21:36:21.055Z,55.21
2023-04-03T21:38:49.555Z,55.23
2023-04-03T21:41:18.246Z,55.25
2023-04-03T21:43:46.543Z,55.27
2023-04-03T21:46:15.011Z,55.23
2023-04-03T21:48:43.243Z,55.16
2023-04-03T21:51:11.419Z,55.14
2023-04-03T21:53:39.676Z,55.16
2023-04-03T21:56:08.021Z,55.16
2023-04-03T21:58:36.558Z,55.19
2023-04-03T22:01:13.208Z,55.24
2023-04-03T22:03:43.317Z,55.29
2023-04-03T22:06:15.109Z,55.33
2023-04-03T22:08:46.454Z,55.38
2023-04-03T22:11:16.082Z,55.38
2023-04-03T22:13:45.391Z,55.49
2023-04-03T22:16:13.642Z,55.53
2023-04-03T22:18:42.350Z,55.54
2023-04-03T22:21:10.716Z,55.57
2023-04-03T22:23:38.947Z,55.57
2023-04-03T22:26:09.543Z,55.48
2023-04-03T22:28:41.879Z,55.48
2023-04-03T22:31:10.414Z,55.40
2023-04-03T22:33:40.202Z,55.32
2023-04-03T22:36:10.597Z,55.32
2023-04-03T22:38:39.953Z,55.31
2023-04-03T22:41:08.294Z,55.33
2023-04-03T22:43:38.233Z,55.31
2023-04-03T22:46:08.831Z,55.33
2023-04-03T22:48:38.020Z,55.35
2023-04-03T22:51:06.839Z,55.37
2023-04-03T22:53:35.670Z,55.31
2023-04-03T22:56:07.062Z,55.34
2023-04-03T22:58:35.177Z,55.27
2023-04-03T23:01:14.525Z,55.30
2023-04-03T23:03:43.293Z,55.25
2023-04-03T23:06:11.432Z,55.23
2023-04-03T23:08:39.697Z,55.19
2023-04-03T23:11:08.681Z,55.18
2023-04-03T23:13:37.797Z,55.13
2023-04-03T23:16:07.017Z,55.12
2023-04-03T23:18:35.355Z,55.13
2023-04-03T23:21:03.910Z,55.14
2023-04-03T23:23:32.922Z,55.18
2023-04-03T23:26:02.003Z,55.25
2023-04-03T23:28:31.093Z,55.22
2023-04-03T23:31:00.764Z,55.28
2023-04-03T23:33:30.692Z,55.27
2023-04-03T23:36:01.165Z,55.27
2023-04-03T23:38:29.604Z,55.25
2023-04-03T23:40:57.832Z,55.26
2023-04-03T23:43:26.282Z,55.26
2023-04-03T23:45:55.211Z,55.21
2023-04-03T23:48:23.380Z,55.22
2023-04-03T23:50:51.676Z,55.22
2023-04-03T23:53:19.751Z,55.24
2023-04-03T23:55:48.124Z,55.21
2023-04-03T23:58:16.419Z,55.20
